sensor_id;sensor_type;location;lat;lon;timestamp;pressure;altitude;pressure_sealevel;temperature;humidity
39177;BME280;24904;52.208;21.192;2023-04-08T00:00:36;101107.04;;;6.71;68.50
39177;BME280;24904;52.208;21.192;2023-04-08T00:05:39;101111.73;;;6.69;68.41
39177;BME280;24904;52.208;21.192;2023-04-08T00:10:42;101114.36;;;6.73;68.57
39177;BME280;24904;52.208;21.192;2023-04-08T00:15:46;101126.24;;;6.74;68.56
39177;BME280;24904;52.208;21.192;2023-04-08T00:20:49;101125.12;;;6.73;68.63
39177;BME280;24904;52.208;21.192;2023-04-08T00:25:52;101116.20;;;6.72;68.66
39177;BME280;24904;52.208;21.192;2023-04-08T00:30:55;101116.83;;;6.74;68.62
39177;BME280;24904;52.208;21.192;2023-04-08T00:35:58;101122.00;;;6.75;68.42
39177;BME280;24904;52.208;21.192;2023-04-08T00:41:01;101124.50;;;6.67;68.30
39177;BME280;24904;52.208;21.192;2023-04-08T00:46:05;101118.83;;;6.65;68.31
39177;BME280;24904;52.208;21.192;2023-04-08T00:51:08;101125.20;;;6.63;68.12
39177;BME280;24904;52.208;21.192;2023-04-08T00:56:11;101127.91;;;6.59;67.95
39177;BME280;24904;52.208;21.192;2023-04-08T01:01:21;101136.93;;;6.58;67.85
39177;BME280;24904;52.208;21.192;2023-04-08T01:06:31;101142.33;;;6.58;67.74
39177;BME280;24904;52.208;21.192;2023-04-08T01:11:42;101146.38;;;6.54;67.52
39177;BME280;24904;52.208;21.192;2023-04-08T01:25:25;101144.63;;;6.37;67.40
39177;BME280;24904;52.208;21.192;2023-04-08T01:30:29;101143.69;;;6.16;67.44
39177;BME280;24904;52.208;21.192;2023-04-08T01:35:33;101139.64;;;6.02;67.45
39177;BME280;24904;52.208;21.192;2023-04-08T01:40:38;101136.60;;;5.83;67.69
39177;BME280;24904;52.208;21.192;2023-04-08T01:45:44;101138.87;;;5.62;68.05
39177;BME280;24904;52.208;21.192;2023-04-08T01:59:35;101158.80;;;5.24;68.60
39177;BME280;24904;52.208;21.192;2023-04-08T02:04:41;101165.49;;;5.06;68.79
39177;BME280;24904;52.208;21.192;2023-04-08T02:09:44;101166.08;;;4.87;69.13
39177;BME280;24904;52.208;21.192;2023-04-08T02:14:47;101168.55;;;4.73;69.52
39177;BME280;24904;52.208;21.192;2023-04-08T02:19:56;101176.23;;;4.62;69.63
39177;BME280;24904;52.208;21.192;2023-04-08T02:25:02;101178.94;;;4.49;69.75
39177;BME280;24904;52.208;21.192;2023-04-08T02:30:09;101177.15;;;4.31;69.96
39177;BME280;24904;52.208;21.192;2023-04-08T02:35:14;101186.35;;;4.16;70.27
39177;BME280;24904;52.208;21.192;2023-04-08T02:40:28;101189.87;;;4.04;70.36
39177;BME280;24904;52.208;21.192;2023-04-08T02:45:34;101192.73;;;3.90;70.48
39177;BME280;24904;52.208;21.192;2023-04-08T02:50:39;101196.77;;;3.76;70.60
39177;BME280;24904;52.208;21.192;2023-04-08T02:55:42;101201.39;;;3.65;71.15
39177;BME280;24904;52.208;21.192;2023-04-08T03:00:45;101209.52;;;3.59;71.41
39177;BME280;24904;52.208;21.192;2023-04-08T03:05:48;101221.08;;;3.48;71.62
39177;BME280;24904;52.208;21.192;2023-04-08T03:10:51;101227.53;;;3.36;71.82
39177;BME280;24904;52.208;21.192;2023-04-08T03:15:54;101229.63;;;3.30;71.95
39177;BME280;24904;52.208;21.192;2023-04-08T03:20:57;101228.10;;;3.23;72.19
39177;BME280;24904;52.208;21.192;2023-04-08T03:26:00;101227.68;;;3.20;72.49
39177;BME280;24904;52.208;21.192;2023-04-08T03:31:03;101231.58;;;3.13;72.34
39177;BME280;24904;52.208;21.192;2023-04-08T03:36:07;101235.15;;;3.08;72.33
39177;BME280;24904;52.208;21.192;2023-04-08T03:41:11;101234.92;;;3.04;72.54
39177;BME280;24904;52.208;21.192;2023-04-08T03:46:14;101236.43;;;2.91;72.08
39177;BME280;24904;52.208;21.192;2023-04-08T03:51:17;101245.76;;;2.81;72.34
39177;BME280;24904;52.208;21.192;2023-04-08T03:56:20;101250.89;;;2.74;72.46
39177;BME280;24904;52.208;21.192;2023-04-08T04:01:23;101260.45;;;2.67;72.36
39177;BME280;24904;52.208;21.192;2023-04-08T04:06:26;101262.03;;;2.62;72.56
39177;BME280;24904;52.208;21.192;2023-04-08T04:11:29;101266.05;;;2.56;72.62
39177;BME280;24904;52.208;21.192;2023-04-08T04:16:32;101270.50;;;2.55;73.00
39177;BME280;24904;52.208;21.192;2023-04-08T04:21:35;101276.50;;;2.53;73.08
39177;BME280;24904;52.208;21.192;2023-04-08T04:26:40;101279.44;;;2.50;72.98
39177;BME280;24904;52.208;21.192;2023-04-08T04:31:43;101284.63;;;2.45;73.52
39177;BME280;24904;52.208;21.192;2023-04-08T04:36:47;101287.48;;;2.46;73.69
39177;BME280;24904;52.208;21.192;2023-04-08T04:41:50;101293.00;;;2.52;74.09
39177;BME280;24904;52.208;21.192;2023-04-08T04:46:53;101296.06;;;2.60;74.27
39177;BME280;24904;52.208;21.192;2023-04-08T04:51:56;101301.51;;;2.68;74.63
39177;BME280;24904;52.208;21.192;2023-04-08T04:56:59;101301.91;;;2.80;74.80
39177;BME280;24904;52.208;21.192;2023-04-08T05:02:02;101303.45;;;2.92;75.13
39177;BME280;24904;52.208;21.192;2023-04-08T05:07:05;101312.55;;;3.08;74.92
39177;BME280;24904;52.208;21.192;2023-04-08T05:12:08;101316.55;;;3.22;74.99
39177;BME280;24904;52.208;21.192;2023-04-08T05:17:11;101311.31;;;3.36;74.95
39177;BME280;24904;52.208;21.192;2023-04-08T05:22:14;101313.48;;;3.54;75.08
39177;BME280;24904;52.208;21.192;2023-04-08T05:27:17;101315.70;;;3.69;74.80
39177;BME280;24904;52.208;21.192;2023-04-08T05:32:22;101310.17;;;3.87;74.70
39177;BME280;24904;52.208;21.192;2023-04-08T05:37:25;101311.30;;;4.06;74.63
39177;BME280;24904;52.208;21.192;2023-04-08T05:42:28;101318.05;;;4.28;74.57
39177;BME280;24904;52.208;21.192;2023-04-08T05:47:32;101324.79;;;4.54;74.25
39177;BME280;24904;52.208;21.192;2023-04-08T05:52:35;101330.70;;;4.75;73.83
39177;BME280;24904;52.208;21.192;2023-04-08T05:57:39;101333.70;;;4.95;73.61
39177;BME280;24904;52.208;21.192;2023-04-08T06:02:42;101333.05;;;5.18;73.20
39177;BME280;24904;52.208;21.192;2023-04-08T06:07:45;101342.56;;;5.43;72.90
39177;BME280;24904;52.208;21.192;2023-04-08T06:12:48;101342.77;;;5.68;72.77
39177;BME280;24904;52.208;21.192;2023-04-08T06:17:52;101340.14;;;5.86;71.80
39177;BME280;24904;52.208;21.192;2023-04-08T06:22:55;101340.45;;;6.03;71.53
39177;BME280;24904;52.208;21.192;2023-04-08T06:27:58;101338.44;;;6.21;70.92
39177;BME280;24904;52.208;21.192;2023-04-08T06:33:01;101339.05;;;6.41;70.90
39177;BME280;24904;52.208;21.192;2023-04-08T06:38:04;101344.52;;;6.65;70.44
39177;BME280;24904;52.208;21.192;2023-04-08T06:43:08;101343.16;;;6.90;70.29
39177;BME280;24904;52.208;21.192;2023-04-08T06:48:14;101351.23;;;7.18;69.75
39177;BME280;24904;52.208;21.192;2023-04-08T06:53:17;101349.92;;;7.43;68.97
39177;BME280;24904;52.208;21.192;2023-04-08T06:58:20;101354.07;;;7.62;68.07
39177;BME280;24904;52.208;21.192;2023-04-08T07:03:23;101354.00;;;7.74;67.36
39177;BME280;24904;52.208;21.192;2023-04-08T07:08:26;101356.33;;;7.90;67.34
39177;BME280;24904;52.208;21.192;2023-04-08T07:13:32;101354.88;;;8.16;67.42
39177;BME280;24904;52.208;21.192;2023-04-08T07:18:37;101350.42;;;8.42;66.91
39177;BME280;24904;52.208;21.192;2023-04-08T07:23:40;101354.45;;;8.65;66.25
39177;BME280;24904;52.208;21.192;2023-04-08T07:28:43;101357.41;;;8.90;66.22
39177;BME280;24904;52.208;21.192;2023-04-08T07:33:46;101358.92;;;9.12;65.32
39177;BME280;24904;52.208;21.192;2023-04-08T07:38:49;101370.17;;;9.37;65.44
39177;BME280;24904;52.208;21.192;2023-04-08T07:43:52;101364.71;;;9.61;64.69
39177;BME280;24904;52.208;21.192;2023-04-08T07:48:55;101367.14;;;9.73;63.74
39177;BME280;24904;52.208;21.192;2023-04-08T07:53:59;101361.34;;;9.81;63.45
39177;BME280;24904;52.208;21.192;2023-04-08T07:59:02;101364.65;;;10.03;63.43
39177;BME280;24904;52.208;21.192;2023-04-08T08:04:05;101363.98;;;10.29;62.93
39177;BME280;24904;52.208;21.192;2023-04-08T08:09:08;101365.18;;;10.43;62.53
39177;BME280;24904;52.208;21.192;2023-04-08T08:14:11;101368.40;;;10.52;61.86
39177;BME280;24904;52.208;21.192;2023-04-08T08:19:15;101370.63;;;10.64;61.74
39177;BME280;24904;52.208;21.192;2023-04-08T08:24:18;101368.25;;;10.72;61.05
39177;BME280;24904;52.208;21.192;2023-04-08T08:29:21;101369.52;;;10.85;61.12
39177;BME280;24904;52.208;21.192;2023-04-08T08:34:24;101366.73;;;10.96;60.66
39177;BME280;24904;52.208;21.192;2023-04-08T08:39:27;101364.16;;;11.12;60.61
39177;BME280;24904;52.208;21.192;2023-04-08T08:44:30;101361.33;;;11.22;60.13
39177;BME280;24904;52.208;21.192;2023-04-08T08:49:33;101360.86;;;11.35;60.11
39177;BME280;24904;52.208;21.192;2023-04-08T08:54:36;101354.09;;;11.44;59.53
39177;BME280;24904;52.208;21.192;2023-04-08T08:59:39;101356.55;;;11.59;59.78
39177;BME280;24904;52.208;21.192;2023-04-08T09:04:56;101357.87;;;11.69;58.98
39177;BME280;24904;52.208;21.192;2023-04-08T09:10:00;101368.79;;;11.75;57.91
39177;BME280;24904;52.208;21.192;2023-04-08T09:15:08;101364.81;;;11.73;57.34
39177;BME280;24904;52.208;21.192;2023-04-08T09:20:12;101371.23;;;11.76;56.69
39177;BME280;24904;52.208;21.192;2023-04-08T09:25:23;101370.79;;;11.79;56.72
39177;BME280;24904;52.208;21.192;2023-04-08T09:30:27;101376.39;;;11.91;56.75
39177;BME280;24904;52.208;21.192;2023-04-08T09:35:30;101381.14;;;12.03;56.55
39177;BME280;24904;52.208;21.192;2023-04-08T09:40:34;101377.21;;;12.18;56.62
39177;BME280;24904;52.208;21.192;2023-04-08T09:45:39;101371.60;;;12.33;56.28
39177;BME280;24904;52.208;21.192;2023-04-08T09:50:48;101369.95;;;12.38;55.84
39177;BME280;24904;52.208;21.192;2023-04-08T09:55:54;101372.05;;;12.51;55.37
39177;BME280;24904;52.208;21.192;2023-04-08T10:00:58;101370.01;;;12.61;54.81
39177;BME280;24904;52.208;21.192;2023-04-08T10:06:02;101361.38;;;12.57;54.91
39177;BME280;24904;52.208;21.192;2023-04-08T10:11:05;101357.11;;;12.57;54.42
39177;BME280;24904;52.208;21.192;2023-04-08T10:16:23;101356.63;;;12.56;55.05
39177;BME280;24904;52.208;21.192;2023-04-08T10:21:40;101350.88;;;12.68;54.89
39177;BME280;24904;52.208;21.192;2023-04-08T10:26:49;101349.80;;;12.83;55.10
39177;BME280;24904;52.208;21.192;2023-04-08T10:31:52;101353.48;;;12.96;54.43
39177;BME280;24904;52.208;21.192;2023-04-08T10:36:56;101350.85;;;13.04;53.95
39177;BME280;24904;52.208;21.192;2023-04-08T10:42:01;101347.28;;;13.12;53.74
39177;BME280;24904;52.208;21.192;2023-04-08T10:47:05;101346.94;;;13.18;52.61
39177;BME280;24904;52.208;21.192;2023-04-08T10:52:09;101338.54;;;13.07;52.34
39177;BME280;24904;52.208;21.192;2023-04-08T10:57:12;101336.56;;;13.11;52.40
39177;BME280;24904;52.208;21.192;2023-04-08T11:02:15;101337.45;;;13.03;51.59
39177;BME280;24904;52.208;21.192;2023-04-08T11:07:20;101330.80;;;13.00;52.08
39177;BME280;24904;52.208;21.192;2023-04-08T11:12:23;101326.07;;;13.10;52.53
39177;BME280;24904;52.208;21.192;2023-04-08T11:17:27;101325.58;;;13.04;51.78
39177;BME280;24904;52.208;21.192;2023-04-08T11:22:31;101322.25;;;13.03;51.32
39177;BME280;24904;52.208;21.192;2023-04-08T11:27:36;101325.05;;;13.00;51.75
39177;BME280;24904;52.208;21.192;2023-04-08T11:32:39;101321.92;;;13.07;51.69
39177;BME280;24904;52.208;21.192;2023-04-08T11:37:42;101316.73;;;13.22;51.42
39177;BME280;24904;52.208;21.192;2023-04-08T11:42:46;101313.71;;;13.35;51.01
39177;BME280;24904;52.208;21.192;2023-04-08T11:47:49;101308.53;;;13.48;50.85
39177;BME280;24904;52.208;21.192;2023-04-08T11:52:52;101299.19;;;13.49;50.63
39177;BME280;24904;52.208;21.192;2023-04-08T11:58:01;101303.20;;;13.54;50.33
39177;BME280;24904;52.208;21.192;2023-04-08T12:03:05;101300.61;;;13.61;49.78
39177;BME280;24904;52.208;21.192;2023-04-08T12:08:08;101292.03;;;13.67;49.73
39177;BME280;24904;52.208;21.192;2023-04-08T12:13:11;101288.98;;;13.77;49.73
39177;BME280;24904;52.208;21.192;2023-04-08T12:18:14;101291.93;;;13.74;49.36
39177;BME280;24904;52.208;21.192;2023-04-08T12:23:18;101284.19;;;13.72;49.09
39177;BME280;24904;52.208;21.192;2023-04-08T12:28:21;101276.77;;;13.72;48.74
39177;BME280;24904;52.208;21.192;2023-04-08T12:33:24;101272.36;;;13.79;49.41
39177;BME280;24904;52.208;21.192;2023-04-08T12:38:27;101275.38;;;13.79;49.01
39177;BME280;24904;52.208;21.192;2023-04-08T12:43:30;101268.61;;;13.75;49.13
39177;BME280;24904;52.208;21.192;2023-04-08T12:48:34;101259.99;;;13.79;49.16
39177;BME280;24904;52.208;21.192;2023-04-08T12:53:38;101260.39;;;13.86;49.14
39177;BME280;24904;52.208;21.192;2023-04-08T12:58:41;101259.52;;;13.93;48.59
39177;BME280;24904;52.208;21.192;2023-04-08T13:03:44;101259.98;;;13.98;48.25
39177;BME280;24904;52.208;21.192;2023-04-08T13:08:49;101247.39;;;14.01;48.71
39177;BME280;24904;52.208;21.192;2023-04-08T13:13:52;101243.66;;;13.99;48.33
39177;BME280;24904;52.208;21.192;2023-04-08T13:18:55;101245.55;;;13.98;48.27
39177;BME280;24904;52.208;21.192;2023-04-08T13:30:50;101237.86;;;14.03;48.60
39177;BME280;24904;52.208;21.192;2023-04-08T13:35:53;101238.09;;;13.88;47.80
39177;BME280;24904;52.208;21.192;2023-04-08T13:40:56;101230.16;;;13.79;47.92
39177;BME280;24904;52.208;21.192;2023-04-08T13:45:59;101232.52;;;13.77;48.00
39177;BME280;24904;52.208;21.192;2023-04-08T13:51:02;101233.80;;;13.72;47.28
39177;BME280;24904;52.208;21.192;2023-04-08T13:56:06;101233.11;;;13.60;46.47
39177;BME280;24904;52.208;21.192;2023-04-08T14:01:09;101232.00;;;13.48;46.55
39177;BME280;24904;52.208;21.192;2023-04-08T14:06:12;101231.87;;;13.38;46.55
39177;BME280;24904;52.208;21.192;2023-04-08T14:11:15;101229.61;;;13.34;46.74
39177;BME280;24904;52.208;21.192;2023-04-08T14:16:18;101230.98;;;13.29;47.41
39177;BME280;24904;52.208;21.192;2023-04-08T14:21:21;101226.74;;;13.26;47.82
39177;BME280;24904;52.208;21.192;2023-04-08T14:26:25;101226.52;;;13.26;47.90
39177;BME280;24904;52.208;21.192;2023-04-08T14:31:28;101224.95;;;13.27;48.04
39177;BME280;24904;52.208;21.192;2023-04-08T14:36:31;101216.91;;;13.26;47.80
39177;BME280;24904;52.208;21.192;2023-04-08T14:41:34;101215.11;;;13.22;48.24
39177;BME280;24904;52.208;21.192;2023-04-08T14:46:37;101209.85;;;13.23;48.81
39177;BME280;24904;52.208;21.192;2023-04-08T14:51:40;101212.09;;;13.26;48.98
39177;BME280;24904;52.208;21.192;2023-04-08T14:56:44;101216.13;;;13.27;48.97
39177;BME280;24904;52.208;21.192;2023-04-08T15:01:47;101214.16;;;13.28;49.45
39177;BME280;24904;52.208;21.192;2023-04-08T15:06:50;101216.52;;;13.22;48.79
39177;BME280;24904;52.208;21.192;2023-04-08T15:11:53;101218.45;;;13.20;48.89
39177;BME280;24904;52.208;21.192;2023-04-08T15:16:57;101216.99;;;13.18;48.75
39177;BME280;24904;52.208;21.192;2023-04-08T15:21:59;101222.55;;;13.16;49.01
39177;BME280;24904;52.208;21.192;2023-04-08T15:27:03;101224.76;;;13.15;48.74
39177;BME280;24904;52.208;21.192;2023-04-08T15:32:06;101224.56;;;13.13;48.81
39177;BME280;24904;52.208;21.192;2023-04-08T15:37:09;101226.66;;;13.11;48.72
39177;BME280;24904;52.208;21.192;2023-04-08T15:42:12;101227.37;;;13.06;48.34
39177;BME280;24904;52.208;21.192;2023-04-08T15:47:15;101229.29;;;13.02;48.63
39177;BME280;24904;52.208;21.192;2023-04-08T15:52:18;101235.24;;;13.00;48.26
39177;BME280;24904;52.208;21.192;2023-04-08T15:57:21;101234.42;;;12.93;47.41
39177;BME280;24904;52.208;21.192;2023-04-08T16:02:27;101237.09;;;12.87;47.04
39177;BME280;24904;52.208;21.192;2023-04-08T16:07:30;101239.34;;;12.85;46.95
39177;BME280;24904;52.208;21.192;2023-04-08T16:12:33;101242.23;;;12.83;47.03
39177;BME280;24904;52.208;21.192;2023-04-08T16:17:36;101245.28;;;12.77;46.94
39177;BME280;24904;52.208;21.192;2023-04-08T16:22:40;101245.56;;;12.75;47.27
39177;BME280;24904;52.208;21.192;2023-04-08T16:27:43;101245.38;;;12.73;47.24
39177;BME280;24904;52.208;21.192;2023-04-08T16:32:46;101246.03;;;12.69;47.11
39177;BME280;24904;52.208;21.192;2023-04-08T16:37:49;101247.22;;;12.66;47.39
39177;BME280;24904;52.208;21.192;2023-04-08T16:42:53;101247.85;;;12.61;47.45
39177;BME280;24904;52.208;21.192;2023-04-08T16:47:56;101251.13;;;12.59;47.44
39177;BME280;24904;52.208;21.192;2023-04-08T16:52:59;101259.95;;;12.55;47.74
39177;BME280;24904;52.208;21.192;2023-04-08T16:58:02;101265.59;;;12.49;47.94
39177;BME280;24904;52.208;21.192;2023-04-08T17:03:05;101270.42;;;12.42;48.16
39177;BME280;24904;52.208;21.192;2023-04-08T17:08:08;101274.59;;;12.33;48.60
39177;BME280;24904;52.208;21.192;2023-04-08T17:13:11;101277.63;;;12.27;49.05
39177;BME280;24904;52.208;21.192;2023-04-08T17:18:14;101284.17;;;12.20;49.20
39177;BME280;24904;52.208;21.192;2023-04-08T17:23:17;101287.27;;;12.09;49.63
39177;BME280;24904;52.208;21.192;2023-04-08T17:28:21;101295.02;;;12.02;50.05
39177;BME280;24904;52.208;21.192;2023-04-08T17:33:24;101305.57;;;11.92;51.03
39177;BME280;24904;52.208;21.192;2023-04-08T17:38:27;101308.29;;;11.83;52.07
39177;BME280;24904;52.208;21.192;2023-04-08T17:43:30;101318.30;;;11.74;52.87
39177;BME280;24904;52.208;21.192;2023-04-08T17:48:33;101327.05;;;11.65;53.27
39177;BME280;24904;52.208;21.192;2023-04-08T17:53:36;101329.88;;;11.50;53.45
39177;BME280;24904;52.208;21.192;2023-04-08T17:58:39;101338.08;;;11.38;54.01
39177;BME280;24904;52.208;21.192;2023-04-08T18:03:42;101343.52;;;11.29;54.76
39177;BME280;24904;52.208;21.192;2023-04-08T18:08:46;101346.15;;;11.18;55.38
39177;BME280;24904;52.208;21.192;2023-04-08T18:13:49;101350.27;;;11.03;56.39
39177;BME280;24904;52.208;21.192;2023-04-08T18:18:52;101360.05;;;10.86;57.62
39177;BME280;24904;52.208;21.192;2023-04-08T18:23:55;101363.07;;;10.72;59.15
39177;BME280;24904;52.208;21.192;2023-04-08T18:28:58;101361.27;;;10.58;60.55
39177;BME280;24904;52.208;21.192;2023-04-08T18:34:01;101363.66;;;10.42;61.99
39177;BME280;24904;52.208;21.192;2023-04-08T18:39:04;101364.51;;;10.25;63.11
39177;BME280;24904;52.208;21.192;2023-04-08T18:44:07;101368.03;;;10.12;64.44
39177;BME280;24904;52.208;21.192;2023-04-08T18:49:10;101369.60;;;10.01;65.40
39177;BME280;24904;52.208;21.192;2023-04-08T18:54:14;101369.74;;;9.90;66.25
39177;BME280;24904;52.208;21.192;2023-04-08T18:59:17;101364.69;;;9.84;67.19
39177;BME280;24904;52.208;21.192;2023-04-08T19:04:20;101358.56;;;9.77;68.05
39177;BME280;24904;52.208;21.192;2023-04-08T19:09:23;101354.87;;;9.70;68.64
39177;BME280;24904;52.208;21.192;2023-04-08T19:14:26;101351.25;;;9.64;69.07
39177;BME280;24904;52.208;21.192;2023-04-08T19:19:29;101349.91;;;9.58;69.49
39177;BME280;24904;52.208;21.192;2023-04-08T19:24:32;101344.65;;;9.50;69.86
39177;BME280;24904;52.208;21.192;2023-04-08T19:29:36;101341.93;;;9.41;70.31
39177;BME280;24904;52.208;21.192;2023-04-08T19:34:39;101341.94;;;9.36;70.82
39177;BME280;24904;52.208;21.192;2023-04-08T19:39:43;101338.19;;;9.37;71.09
39177;BME280;24904;52.208;21.192;2023-04-08T19:44:46;101332.86;;;9.37;71.38
39177;BME280;24904;52.208;21.192;2023-04-08T19:49:50;101332.23;;;9.34;71.65
39177;BME280;24904;52.208;21.192;2023-04-08T19:54:53;101331.90;;;9.31;71.88
39177;BME280;24904;52.208;21.192;2023-04-08T19:59:56;101331.75;;;9.31;72.30
39177;BME280;24904;52.208;21.192;2023-04-08T20:04:59;101332.42;;;9.30;72.38
39177;BME280;24904;52.208;21.192;2023-04-08T20:10:02;101337.73;;;9.27;72.78
39177;BME280;24904;52.208;21.192;2023-04-08T20:15:07;101331.82;;;9.23;72.95
39177;BME280;24904;52.208;21.192;2023-04-08T20:20:11;101330.55;;;9.18;73.24
39177;BME280;24904;52.208;21.192;2023-04-08T20:25:14;101327.04;;;9.15;73.67
39177;BME280;24904;52.208;21.192;2023-04-08T20:30:18;101329.65;;;9.16;73.82
39177;BME280;24904;52.208;21.192;2023-04-08T20:35:21;101329.23;;;9.15;73.94
39177;BME280;24904;52.208;21.192;2023-04-08T20:40:24;101330.20;;;9.10;74.17
39177;BME280;24904;52.208;21.192;2023-04-08T20:45:27;101326.77;;;9.05;74.54
39177;BME280;24904;52.208;21.192;2023-04-08T20:50:32;101333.77;;;9.06;74.87
39177;BME280;24904;52.208;21.192;2023-04-08T20:55:35;101331.58;;;9.06;74.84
39177;BME280;24904;52.208;21.192;2023-04-08T21:00:38;101333.06;;;9.01;75.00
39177;BME280;24904;52.208;21.192;2023-04-08T21:05:41;101333.36;;;8.99;75.38
39177;BME280;24904;52.208;21.192;2023-04-08T21:10:44;101331.88;;;8.99;75.74
39177;BME280;24904;52.208;21.192;2023-04-08T21:15:47;101327.41;;;8.98;75.91
39177;BME280;24904;52.208;21.192;2023-04-08T21:20:50;101317.82;;;8.97;76.02
39177;BME280;24904;52.208;21.192;2023-04-08T21:25:53;101315.38;;;8.94;76.16
39177;BME280;24904;52.208;21.192;2023-04-08T21:30:56;101315.52;;;8.91;76.32
39177;BME280;24904;52.208;21.192;2023-04-08T21:36:08;101308.00;;;8.86;76.67
39177;BME280;24904;52.208;21.192;2023-04-08T21:41:11;101308.80;;;8.85;76.97
39177;BME280;24904;52.208;21.192;2023-04-08T21:46:14;101310.87;;;8.83;77.13
39177;BME280;24904;52.208;21.192;2023-04-08T21:51:18;101308.95;;;8.85;77.28
39177;BME280;24904;52.208;21.192;2023-04-08T21:56:21;101311.05;;;8.84;77.32
39177;BME280;24904;52.208;21.192;2023-04-08T22:01:25;101309.77;;;8.83;77.43
39177;BME280;24904;52.208;21.192;2023-04-08T22:06:29;101303.24;;;8.80;77.71
39177;BME280;24904;52.208;21.192;2023-04-08T22:11:32;101296.97;;;8.82;77.90
39177;BME280;24904;52.208;21.192;2023-04-08T22:16:35;101286.10;;;8.84;78.22
39177;BME280;24904;52.208;21.192;2023-04-08T22:21:38;101284.85;;;8.82;78.33
39177;BME280;24904;52.208;21.192;2023-04-08T22:26:41;101280.20;;;8.81;78.45
39177;BME280;24904;52.208;21.192;2023-04-08T22:31:44;101281.52;;;8.81;78.57
39177;BME280;24904;52.208;21.192;2023-04-08T22:36:47;101286.84;;;8.78;78.69
39177;BME280;24904;52.208;21.192;2023-04-08T22:41:50;101287.53;;;8.77;78.84
39177;BME280;24904;52.208;21.192;2023-04-08T22:46:53;101289.05;;;8.76;79.04
39177;BME280;24904;52.208;21.192;2023-04-08T22:51:56;101282.01;;;8.79;79.08
39177;BME280;24904;52.208;21.192;2023-04-08T22:56:59;101280.58;;;8.83;78.99
39177;BME280;24904;52.208;21.192;2023-04-08T23:02:03;101287.22;;;8.83;79.08
39177;BME280;24904;52.208;21.192;2023-04-08T23:07:06;101282.64;;;8.86;78.91
39177;BME280;24904;52.208;21.192;2023-04-08T23:12:09;101277.09;;;8.88;79.04
39177;BME280;24904;52.208;21.192;2023-04-08T23:17:12;101271.52;;;8.93;79.09
39177;BME280;24904;52.208;21.192;2023-04-08T23:22:15;101275.05;;;8.93;79.03
39177;BME280;24904;52.208;21.192;2023-04-08T23:27:18;101273.02;;;8.93;79.02
39177;BME280;24904;52.208;21.192;2023-04-08T23:32:21;101268.93;;;8.96;79.05
39177;BME280;24904;52.208;21.192;2023-04-08T23:37:24;101265.16;;;9.00;79.02
39177;BME280;24904;52.208;21.192;2023-04-08T23:42:27;101259.49;;;8.97;78.99
39177;BME280;24904;52.208;21.192;2023-04-08T23:47:30;101255.23;;;8.96;79.04
39177;BME280;24904;52.208;21.192;2023-04-08T23:52:33;101248.02;;;8.95;79.11
39177;BME280;24904;52.208;21.192;2023-04-08T23:57:36;101249.27;;;8.93;79.27
